Maersk Weymouth — VRFS9 — position and weather

sailwx.info

Track history (hours):
 
Tides and Currents Weather Stations Pressure Air Temp Water Temp Dewpoint Dewpoint Depression Visibility Wind Speed Wind Dir Waves Ship Positions

Maersk Weymouth

Last reported at 2017-Jan-16 10:33 UTC. Time now 2017-Jan-16 10:54 UTC.
Position N 39°51' W 075°16'.

Length 175 m; draft 7.6 m.

Type: Cargo ship. MMSI: 477622100.

Date/timePositionNaut miles runAvg speedWind from/ knotsBaromVisibWave heightAir tempDewpointWater temp
2017-Jan-16 10:33N 39°51' W 075°16'10 9.6
2017-Jan-16 09:33N 39°47' W 075°28'1312.9
2017-Jan-16 08:33N 39°35' W 075°33'1514.6
2017-Jan-16 07:33N 39°21' W 075°26'1616.0
2017-Jan-16 06:33N 39°08' W 075°14'1615.4
2017-Jan-16 05:32N 38°54' W 075°05'10 9.8
2017-Jan-16 04:33N 38°46' W 074°59'6 5.4
2017-Jan-16 03:31N 38°42' W 074°54'35 3.5
2017-Jan-15 17:23N 38°11' W 074°33'7 8.3
2017-Jan-15 16:30N 38°03' W 074°34'9 8.1
2017-Jan-15 15:26N 37°55' W 074°35'7 8.1
2017-Jan-15 14:33N 37°48' W 074°36'9 8.2
2017-Jan-15 13:29N 37°39' W 074°37'75 5.6
2017-Jan-15 00:12N 36°49' W 075°47'6 8.9
2017-Jan-14 23:33N 36°52' W 075°53'9 8.6
2017-Jan-14 22:33N 36°57' W 076°02'1514.6
2017-Jan-14 21:33N 36°57' W 076°20'6 5.9
2017-Jan-14 20:33N 36°51' W 076°19'0 0.0
2017-Jan-14 19:31N 36°51' W 076°19'0 0.0
2017-Jan-14 18:31N 36°51' W 076°19'0 0.0
2017-Jan-14 17:31N 36°51' W 076°19'0 0.0
2017-Jan-14 16:31N 36°51' W 076°19'0 0.0
2017-Jan-14 15:31N 36°51' W 076°19'0 0.0
2017-Jan-14 14:31N 36°51' W 076°19'0 0.0
2017-Jan-14 13:31N 36°51' W 076°19'0 0.0
2017-Jan-14 12:31N 36°51' W 076°19'0 0.0
2017-Jan-14 11:31N 36°51' W 076°19'2 2.1
2017-Jan-14 10:34N 36°53' W 076°20'7 6.6
2017-Jan-14 09:33N 36°60' W 076°18'174 7.9
2017-Jan-13 11:34N 34°06' W 076°16'  
2017-Jan-10 22:17N 26°18' W 079°24'3218.1
2017-Jan-10 20:30N 25°45' W 079°28'  
Track history (hours):
 
Tides and Currents Weather Stations Pressure Air Temp Water Temp Dewpoint Dewpoint Depression Visibility Wind Speed Wind Dir Waves Ship Positions

Maersk Weymouth

Last reported at 2017-Jan-16 10:33 UTC. Time now 2017-Jan-16 10:54 UTC.
Position N 39°51' W 075°16'.

Length 175 m; draft 7.6 m.

Type: Cargo ship. MMSI: 477622100.

Date/timePositionNaut miles runAvg speedWind from/ knotsBaromVisibWave heightAir tempDewpointWater temp
2017-Jan-16 10:33N 39°51' W 075°16'10 9.6
2017-Jan-16 09:33N 39°47' W 075°28'1312.9
2017-Jan-16 08:33N 39°35' W 075°33'1514.6
2017-Jan-16 07:33N 39°21' W 075°26'1616.0
2017-Jan-16 06:33N 39°08' W 075°14'1615.4
2017-Jan-16 05:32N 38°54' W 075°05'10 9.8
2017-Jan-16 04:33N 38°46' W 074°59'6 5.4
2017-Jan-16 03:31N 38°42' W 074°54'35 3.5
2017-Jan-15 17:23N 38°11' W 074°33'7 8.3
2017-Jan-15 16:30N 38°03' W 074°34'9 8.1
2017-Jan-15 15:26N 37°55' W 074°35'7 8.1
2017-Jan-15 14:33N 37°48' W 074°36'9 8.2
2017-Jan-15 13:29N 37°39' W 074°37'75 5.6
2017-Jan-15 00:12N 36°49' W 075°47'6 8.9
2017-Jan-14 23:33N 36°52' W 075°53'9 8.6
2017-Jan-14 22:33N 36°57' W 076°02'1514.6
2017-Jan-14 21:33N 36°57' W 076°20'6 5.9
2017-Jan-14 20:33N 36°51' W 076°19'0 0.0
2017-Jan-14 19:31N 36°51' W 076°19'0 0.0
2017-Jan-14 18:31N 36°51' W 076°19'0 0.0
2017-Jan-14 17:31N 36°51' W 076°19'0 0.0
2017-Jan-14 16:31N 36°51' W 076°19'0 0.0
2017-Jan-14 15:31N 36°51' W 076°19'0 0.0
2017-Jan-14 14:31N 36°51' W 076°19'0 0.0
2017-Jan-14 13:31N 36°51' W 076°19'0 0.0
2017-Jan-14 12:31N 36°51' W 076°19'0 0.0
2017-Jan-14 11:31N 36°51' W 076°19'2 2.1
2017-Jan-14 10:34N 36°53' W 076°20'7 6.6
2017-Jan-14 09:33N 36°60' W 076°18'174 7.9
2017-Jan-13 11:34N 34°06' W 076°16'  
2017-Jan-10 22:17N 26°18' W 079°24'3218.1
2017-Jan-10 20:30N 25°45' W 079°28'  

Dump ship's entire track history